createdAt,value
2018-07-31T00:03:26.057Z,12.9
2018-07-31T00:13:25.218Z,12.5
2018-07-31T00:23:24.463Z,12.9
2018-07-31T00:33:23.706Z,12.5
2018-07-31T00:43:22.949Z,13.2
2018-07-31T00:53:22.193Z,13
2018-07-31T01:03:21.436Z,12.9
2018-07-31T01:13:20.683Z,12.8
2018-07-31T01:23:19.928Z,12.7
2018-07-31T01:33:19.167Z,12.7
2018-07-31T01:43:18.408Z,12.4
2018-07-31T01:53:17.651Z,12.8
2018-07-31T02:03:16.895Z,12.5
2018-07-31T02:13:16.140Z,12.9
2018-07-31T02:23:15.389Z,13.1
2018-07-31T02:33:14.629Z,13
2018-07-31T02:43:13.923Z,12.8
2018-07-31T02:53:13.112Z,13.1
2018-07-31T03:03:12.357Z,12.9
2018-07-31T03:13:11.600Z,13
2018-07-31T03:23:10.845Z,12.8
2018-07-31T03:33:10.089Z,12.8
2018-07-31T03:43:09.329Z,13.1
2018-07-31T03:53:08.575Z,12.6
2018-07-31T04:03:07.817Z,12.4
2018-07-31T04:13:07.062Z,13.2
2018-07-31T04:23:06.311Z,12.8
2018-07-31T04:33:05.549Z,12.6
2018-07-31T04:43:04.800Z,12.7
2018-07-31T04:53:04.037Z,13.1
2018-07-31T05:03:03.291Z,13.2
2018-07-31T05:13:02.527Z,12.9
2018-07-31T05:23:01.769Z,12.5
2018-07-31T05:33:01.012Z,12.9
2018-07-31T05:43:00.254Z,12.4
2018-07-31T05:52:59.498Z,12.6
2018-07-31T06:02:58.741Z,12.6
2018-07-31T06:12:57.983Z,12.8
2018-07-31T06:22:57.227Z,12.9
2018-07-31T06:32:56.516Z,13.7
2018-07-31T06:42:55.719Z,14.1
2018-07-31T06:52:54.960Z,13.4
2018-07-31T07:02:54.201Z,13.5
2018-07-31T07:12:53.451Z,13.8
2018-07-31T07:22:52.690Z,13.6
2018-07-31T07:32:51.928Z,13.9
2018-07-31T07:42:51.223Z,13.9
2018-07-31T07:52:50.416Z,13.8
2018-07-31T08:02:49.659Z,14.6
2018-07-31T08:12:48.904Z,14.3
2018-07-31T08:22:48.149Z,14
